Time;durP1;ratioP1;P1;durP2;ratioP2;P2;SDS_P1;SDS_P2;PMS_P1;PMS_P2;Temp;Humidity;BMP_temperature;BMP_pressure;BME280_temperature;BME280_humidity;BME280_pressure;Samples;Min_cycle;Max_cycle;Signal;HPM_P1;HPM_P2
2022/08/31 00:05:26;;;;;;;3.53;1.70;;;22.60;74.10;;;23.09;71.43;101291.44;5183131;28;20576;-72
2022/08/31 00:08:00;;;;;;;3.05;1.50;;;22.60;74.30;;;23.06;71.52;101292.34;5183341;28;20064;-70
2022/08/31 00:10:33;;;;;;;2.58;1.85;;;22.60;74.40;;;23.06;71.99;101296.78;5182629;28;20050;-68
2022/08/31 00:13:07;;;;;;;3.35;1.67;;;22.60;74.80;;;23.05;74.25;101297.69;5183566;28;20050;-69
2022/08/31 00:15:40;;;;;;;2.95;1.90;;;22.60;76.30;;;23.00;77.77;101298.59;5182557;28;20064;-68
2022/08/31 00:18:14;;;;;;;4.35;1.98;;;22.50;78.70;;;22.91;82.51;101292.47;5181966;28;20068;-68
2022/08/31 00:20:48;;;;;;;5.13;2.15;;;22.50;82.10;;;22.72;86.95;101286.38;5183332;28;20041;-68
2022/08/31 00:23:20;;;;;;;7.65;2.22;;;22.30;85.60;;;22.52;91.15;101288.31;5183640;28;20498;-67
2022/08/31 00:25:55;;;;;;;6.10;2.70;;;22.10;89.00;;;22.26;96.64;101284.03;5181682;28;20042;-71
2022/08/31 00:28:27;;;;;;;4.75;2.58;;;21.90;91.90;;;21.96;99.24;101279.72;5182272;28;20050;-67
2022/08/31 00:31:00;;;;;;;7.03;3.08;;;21.70;93.30;;;21.69;100.00;101275.41;5183880;28;20044;-67
2022/08/31 00:33:35;;;;;;;6.43;2.83;;;21.40;95.00;;;21.45;100.00;101283.41;5183393;28;20049;-73
2022/08/31 00:36:13;;;;;;;4.35;2.42;;;21.20;96.50;;;21.30;100.00;101279.91;5182107;28;20064;-72
2022/08/31 00:38:47;;;;;;;5.72;2.97;;;21.00;98.40;;;21.23;100.00;101282.53;5182078;28;20057;-72
2022/08/31 00:41:23;;;;;;;4.80;2.33;;;20.90;99.50;;;21.14;100.00;101288.75;5198569;28;20081;-70
2022/08/31 00:43:59;;;;;;;5.47;3.03;;;20.70;99.90;;;21.07;100.00;101287.00;5184892;28;20422;-66
2022/08/31 00:46:37;;;;;;;6.13;3.00;;;20.70;99.90;;;21.02;100.00;101289.63;5186952;28;20053;-71
2022/08/31 00:49:15;;;;;;;4.35;2.58;;;20.60;99.90;;;20.96;100.00;101289.63;5185987;28;20056;-72
2022/08/31 00:51:52;;;;;;;3.60;2.45;;;20.50;99.90;;;20.93;100.00;101288.72;5187770;28;20081;-72
2022/08/31 00:54:31;;;;;;;5.22;2.60;;;20.50;99.90;;;20.92;100.00;101294.91;5186360;28;20073;-73
2022/08/31 00:57:05;;;;;;;5.03;2.72;;;20.50;99.90;;;20.92;100.00;101292.28;5187516;28;20554;-72
2022/08/31 00:59:40;;;;;;;4.60;2.72;;;20.50;99.90;;;20.94;100.00;101290.53;5185999;28;20038;-72
2022/08/31 01:02:14;;;;;;;4.35;2.50;;;20.50;99.90;;;20.96;100.00;101294.06;5187086;28;20475;-73
2022/08/31 01:04:48;;;;;;;5.10;3.00;;;20.50;99.90;;;20.96;100.00;101299.34;5186201;28;20046;-72
2022/08/31 01:07:20;;;;;;;5.28;3.20;;;20.50;99.90;;;20.93;100.00;101299.34;5186947;28;20048;-72
2022/08/31 01:09:54;;;;;;;5.85;2.83;;;20.50;99.90;;;20.90;100.00;101294.03;5202111;28;20046;-73
2022/08/31 01:12:28;;;;;;;7.32;3.05;;;20.40;99.90;;;20.85;100.00;101305.50;5185455;28;20509;-72
2022/08/31 01:15:04;;;;;;;4.65;2.80;;;20.40;99.90;;;20.85;100.00;101309.94;5185842;28;20073;-73
2022/08/31 01:17:38;;;;;;;6.55;2.75;;;20.40;99.90;;;20.82;100.00;101310.81;5186878;28;20048;-73
2022/08/31 01:20:19;;;;;;;7.38;3.20;;;20.40;99.90;;;20.81;100.00;101310.84;5185510;28;20442;-72
2022/08/31 01:23:13;;;;;;;4.72;2.90;;;20.40;99.90;;;20.80;100.00;101315.25;5187136;28;20518;-73
2022/08/31 01:25:47;;;;;;;6.05;3.53;;;20.40;99.90;;;20.80;100.00;101307.31;5201802;28;20100;-72
2022/08/31 01:28:19;;;;;;;4.80;2.40;;;20.40;99.90;;;20.79;100.00;101310.81;5186535;28;20506;-72
2022/08/31 01:31:01;;;;;;;6.80;2.95;;;20.40;99.90;;;20.75;100.00;101311.72;5187138;28;20046;-72
2022/08/31 01:33:36;;;;;;;5.93;2.83;;;20.30;99.90;;;20.72;100.00;101316.97;5185461;28;20054;-72
2022/08/31 01:36:09;;;;;;;4.10;2.70;;;20.30;99.90;;;20.65;100.00;101312.56;5185044;28;20506;-72
2022/08/31 01:38:44;;;;;;;4.95;2.80;;;20.20;99.90;;;20.59;100.00;101310.78;5185174;28;20517;-72
2022/08/31 01:41:16;;;;;;;6.80;3.05;;;20.20;99.90;;;20.53;100.00;101310.75;5186821;28;20038;-72
2022/08/31 01:43:49;;;;;;;5.45;3.00;;;20.10;99.90;;;20.49;100.00;101308.13;5185239;28;20050;-73
2022/08/31 01:46:21;;;;;;;5.55;2.92;;;20.10;99.90;;;20.46;100.00;101308.97;5186025;28;20046;-72
2022/08/31 01:48:54;;;;;;;5.65;2.90;;;20.10;99.90;;;20.45;100.00;101309.00;5185204;28;20046;-71
2022/08/31 01:51:27;;;;;;;5.40;2.90;;;20.00;99.90;;;20.41;100.00;101320.41;5184826;28;20046;-72
2022/08/31 01:54:01;;;;;;;5.20;2.60;;;20.00;99.90;;;20.37;100.00;101319.53;5186195;28;20554;-72
2022/08/31 01:56:38;;;;;;;5.22;2.70;;;20.00;99.90;;;20.36;100.00;101327.47;5186032;28;20037;-71
2022/08/31 01:59:15;;;;;;;4.80;2.97;;;20.00;99.90;;;20.31;100.00;101333.63;5201423;28;20053;-73
2022/08/31 02:02:10;;;;;;;4.35;2.50;;;19.90;99.90;;;20.28;100.00;101330.09;5183403;28;20057;-72
2022/08/31 02:04:42;;;;;;;5.28;2.63;;;19.90;99.90;;;20.26;100.00;101316.84;5184869;28;20522;-72
2022/08/31 02:07:14;;;;;;;6.85;3.10;;;19.80;99.90;;;20.18;100.00;101315.94;5184594;28;20145;-72
2022/08/31 02:09:48;;;;;;;5.32;3.10;;;19.80;99.90;;;20.08;100.00;101311.47;5184569;28;20516;-73
2022/08/31 02:12:20;;;;;;;4.53;3.03;;;19.70;99.90;;;20.03;100.00;101313.25;5184849;28;20046;-72
2022/08/31 02:14:53;;;;;;;5.22;3.20;;;19.70;99.90;;;20.00;100.00;101313.22;5184894;28;20041;-72
2022/08/31 02:17:25;;;;;;;6.22;3.33;;;19.60;99.90;;;19.98;100.00;101317.63;5185555;28;20088;-73
2022/08/31 02:19:58;;;;;;;5.35;3.28;;;19.60;99.90;;;19.90;100.00;101322.88;5184560;28;20057;-72
2022/08/31 02:22:30;;;;;;;6.95;3.83;;;19.60;99.90;;;19.88;100.00;101316.69;5184447;28;20104;-71
2022/08/31 02:25:05;;;;;;;7.38;4.13;;;19.60;99.90;;;19.84;100.00;101314.03;5184464;28;20157;-72
2022/08/31 02:27:38;;;;;;;6.07;3.33;;;19.50;99.90;;;19.77;100.00;101308.72;5200631;28;20052;-71
2022/08/31 02:30:18;;;;;;;6.38;3.67;;;19.50;99.90;;;19.74;100.00;101306.03;5183943;28;20045;-73
2022/08/31 02:32:50;;;;;;;6.32;3.40;;;19.40;99.90;;;19.71;100.00;101306.03;5185170;28;20115;-72
2022/08/31 02:35:22;;;;;;;6.40;4.22;;;19.40;99.90;;;19.60;100.00;101301.53;5183716;28;20042;-73
2022/08/31 02:37:55;;;;;;;6.25;3.45;;;19.30;99.90;;;19.51;100.00;101307.66;5183506;28;20061;-72
2022/08/31 02:40:29;;;;;;;5.60;3.22;;;19.30;99.90;;;19.40;100.00;101304.03;5183388;28;20132;-73
2022/08/31 02:43:01;;;;;;;5.40;3.45;;;19.20;99.90;;;19.33;100.00;101302.22;5183659;28;20103;-71
2022/08/31 02:45:34;;;;;;;5.78;3.20;;;19.10;99.90;;;19.34;100.00;101304.88;5183509;28;20060;-72
2022/08/31 02:48:13;;;;;;;5.32;3.28;;;19.10;99.90;;;19.38;100.00;101308.44;5183473;28;20038;-72
2022/08/31 02:50:49;;;;;;;7.18;3.47;;;19.10;99.90;;;19.35;100.00;101311.03;5183754;28;20153;-72
2022/08/31 02:53:23;;;;;;;5.47;3.30;;;19.10;99.90;;;19.36;100.00;101312.81;5200213;28;20050;-73
2022/08/31 02:55:58;;;;;;;6.10;3.40;;;19.10;99.90;;;19.35;100.00;101316.34;5199867;28;20137;-72
2022/08/31 02:58:30;;;;;;;5.38;3.20;;;19.10;99.90;;;19.35;100.00;101308.41;5183566;28;20387;-72
2022/08/31 03:01:02;;;;;;;5.63;3.58;;;19.10;99.90;;;19.37;100.00;101310.19;5183543;28;20333;-72
2022/08/31 03:03:37;;;;;;;5.90;3.45;;;19.10;99.90;;;19.40;100.00;101306.69;5184278;28;20045;-72
2022/08/31 03:06:09;;;;;;;4.72;3.42;;;19.10;99.90;;;19.47;100.00;101309.38;5182794;28;20069;-72
2022/08/31 03:08:42;;;;;;;5.22;3.00;;;19.10;99.90;;;19.54;100.00;101315.59;5183044;28;20112;-73
2022/08/31 03:11:17;;;;;;;4.82;3.13;;;19.20;99.90;;;19.61;100.00;101320.06;5183116;28;20046;-73
2022/08/31 03:13:49;;;;;;;4.97;3.17;;;19.20;99.90;;;19.65;100.00;101321.88;5183202;28;20045;-72
2022/08/31 03:16:22;;;;;;;4.55;3.08;;;19.30;99.90;;;19.68;100.00;101320.97;5183009;28;20523;-67
2022/08/31 03:18:54;;;;;;;4.32;2.78;;;19.30;99.90;;;19.67;100.00;101317.47;5184443;28;20042;-66
2022/08/31 03:21:27;;;;;;;4.80;3.15;;;19.30;99.90;;;19.67;100.00;101322.75;5182887;28;20478;-67
2022/08/31 03:24:02;;;;;;;4.78;3.13;;;19.30;99.90;;;19.66;100.00;101315.69;5184424;28;20038;-67
2022/08/31 03:26:35;;;;;;;6.10;3.50;;;19.30;99.90;;;19.63;100.00;101318.34;5184729;28;20516;-67
2022/08/31 03:29:08;;;;;;;6.57;3.53;;;19.20;99.90;;;19.57;100.00;101318.25;5183330;28;20050;-67
2022/08/31 03:31:59;;;;;;;7.30;3.50;;;19.20;99.90;;;19.50;100.00;101313.81;5184303;28;20053;-67
2022/08/31 03:34:31;;;;;;;4.95;3.25;;;19.20;99.90;;;19.50;100.00;101312.06;5183107;28;20168;-67
2022/08/31 03:37:04;;;;;;;5.13;3.28;;;19.20;99.90;;;19.55;100.00;101314.69;5182945;28;20053;-67
2022/08/31 03:39:36;;;;;;;5.82;3.28;;;19.20;99.90;;;19.59;100.00;101315.66;5199429;28;20050;-66
2022/08/31 03:42:11;;;;;;;5.63;3.38;;;19.20;99.90;;;19.62;100.00;101310.38;5183695;28;20058;-67
2022/08/31 03:44:43;;;;;;;4.15;3.00;;;19.20;99.90;;;19.62;100.00;101305.97;5183275;28;20053;-67
2022/08/31 03:47:23;;;;;;;5.68;3.00;;;19.20;99.90;;;19.62;100.00;101313.88;5183696;28;20104;-67
2022/08/31 03:49:56;;;;;;;5.50;3.20;;;19.20;99.90;;;19.64;100.00;101320.09;5184674;28;20092;-67
2022/08/31 03:52:33;;;;;;;5.25;3.17;;;19.20;99.90;;;19.61;100.00;101316.53;5183276;28;20052;-66
2022/08/31 03:55:09;;;;;;;4.38;2.78;;;19.20;99.90;;;19.61;100.00;101319.19;5183212;28;20100;-66
2022/08/31 03:57:45;;;;;;;4.55;3.13;;;19.20;99.90;;;19.63;100.00;101318.34;5183063;28;20442;-66
2022/08/31 04:00:18;;;;;;;5.55;3.28;;;19.20;99.90;;;19.65;100.00;101326.28;5183023;28;20142;-67
2022/08/31 04:02:58;;;;;;;7.28;3.33;;;19.20;99.90;;;19.66;100.00;101328.03;5182753;28;20050;-67
2022/08/31 04:05:42;;;;;;;5.35;3.42;;;19.20;99.90;;;19.64;100.00;101327.16;5184012;28;20518;-66
2022/08/31 04:08:51;;;;;;;5.40;3.45;;;19.20;99.90;;;19.60;100.00;101322.72;5183820;28;20050;-67
2022/08/31 04:11:43;;;;;;;5.68;3.15;;;19.20;99.90;;;19.58;100.00;101328.00;5183910;28;20398;-66
2022/08/31 04:14:41;;;;;;;4.88;3.00;;;19.20;99.90;;;19.56;100.00;101327.06;5173973;28;20499;-66
2022/08/31 04:17:32;;;;;;;6.53;3.63;;;19.20;99.90;;;19.51;100.00;101328.78;5184265;28;20050;-67
2022/08/31 04:20:25;;;;;;;4.65;2.83;;;19.10;99.90;;;19.50;100.00;101332.31;5187495;28;20503;-66
2022/08/31 04:22:57;;;;;;;4.97;3.30;;;19.10;99.90;;;19.49;100.00;101331.41;5186397;28;20109;-67
2022/08/31 04:25:40;;;;;;;5.88;3.53;;;19.10;99.90;;;19.48;100.00;101324.34;5186273;28;20046;-67
2022/08/31 04:28:12;;;;;;;6.53;3.50;;;19.10;99.90;;;19.47;100.00;101327.88;5186302;28;20128;-67
2022/08/31 04:30:47;;;;;;;6.28;3.63;;;19.00;99.90;;;19.46;100.00;101327.88;5185862;28;20042;-67
2022/08/31 04:33:20;;;;;;;5.97;3.50;;;19.00;99.90;;;19.45;100.00;101329.63;5186149;28;20423;-66
2022/08/31 04:35:53;;;;;;;6.75;3.60;;;19.00;99.90;;;19.42;100.00;101324.31;5187411;28;20069;-67
2022/08/31 04:38:25;;;;;;;5.85;3.65;;;19.00;99.90;;;19.39;100.00;101334.00;5186542;28;20053;-67
2022/08/31 04:40:57;;;;;;;5.28;3.30;;;19.00;99.90;;;19.39;100.00;101328.72;5185911;28;20384;-66
2022/08/31 04:43:29;;;;;;;5.82;3.60;;;18.90;99.90;;;19.37;100.00;101328.69;5187596;28;20375;-67
2022/08/31 04:46:04;;;;;;;5.93;3.42;;;19.00;99.90;;;19.39;100.00;101334.88;5185969;28;20137;-66
2022/08/31 04:48:37;;;;;;;5.80;3.53;;;19.00;99.90;;;19.40;100.00;101333.13;5185672;28;20073;-67
2022/08/31 04:51:13;;;;;;;5.82;3.25;;;19.00;99.90;;;19.41;100.00;101333.13;5185766;28;20485;-67
2022/08/31 04:53:46;;;;;;;6.15;3.78;;;19.00;99.90;;;19.40;100.00;101330.47;5187324;28;20045;-67
2022/08/31 04:56:22;;;;;;;5.32;3.92;;;19.00;99.90;;;19.40;100.00;101327.81;5185728;28;20042;-67
2022/08/31 04:58:59;;;;;;;5.80;3.78;;;19.00;99.90;;;19.41;100.00;101333.13;5185891;28;20060;-67
2022/08/31 05:01:38;;;;;;;5.97;3.90;;;19.00;99.90;;;19.41;100.00;101340.16;5185544;28;20162;-67
2022/08/31 05:04:39;;;;;;;5.22;3.72;;;19.00;99.90;;;19.40;100.00;101343.69;5186558;28;20053;-67
2022/08/31 05:07:11;;;;;;;5.93;3.55;;;19.00;99.90;;;19.41;100.00;101342.81;5184879;28;20056;-67
2022/08/31 05:09:44;;;;;;;6.68;3.95;;;19.00;99.90;;;19.41;100.00;101342.81;5184458;28;20050;-68
2022/08/31 05:12:17;;;;;;;5.68;3.47;;;19.00;99.90;;;19.40;100.00;101343.69;5186133;28;20041;-68
2022/08/31 05:14:50;;;;;;;5.28;3.40;;;19.00;99.90;;;19.38;100.00;101348.09;5185707;28;20057;-68
2022/08/31 05:17:30;;;;;;;5.82;3.58;;;19.00;99.90;;;19.37;100.00;101357.78;5185389;28;20045;-68
2022/08/31 05:20:04;;;;;;;5.15;3.58;;;18.90;99.90;;;19.36;100.00;101353.34;5185326;28;20119;-67
2022/08/31 05:22:37;;;;;;;5.32;3.50;;;18.90;99.90;;;19.38;100.00;101350.72;5186525;28;20050;-66
2022/08/31 05:25:12;;;;;;;5.47;3.60;;;18.90;99.90;;;19.38;100.00;101351.63;5185254;28;20100;-67
2022/08/31 05:27:44;;;;;;;;;;;19.00;99.90;;;19.40;100.00;101352.50;5185717;28;20459;-68
2022/08/31 05:30:18;;;;;;;5.85;3.33;;;19.00;99.90;;;19.41;100.00;101354.28;5201541;28;19921;-67
2022/08/31 05:33:07;;;;;;;6.10;3.72;;;19.00;99.90;;;19.42;100.00;101353.38;5186507;28;20068;-67
2022/08/31 05:35:43;;;;;;;6.65;3.80;;;19.00;99.90;;;19.45;100.00;101352.56;5185553;28;20048;-66
2022/08/31 05:38:15;;;;;;;5.18;3.72;;;19.00;99.90;;;19.44;100.00;101358.72;5185559;28;20041;-68
2022/08/31 05:40:53;;;;;;;5.70;3.58;;;19.00;99.90;;;19.41;100.00;101356.03;5185510;28;20565;-67
2022/08/31 05:43:26;;;;;;;6.13;3.58;;;19.00;99.90;;;19.40;100.00;101349.84;5201911;28;20038;-66
2022/08/31 05:45:59;;;;;;;5.53;3.75;;;19.00;99.90;;;19.42;100.00;101350.75;5185376;28;20060;-68
2022/08/31 05:48:35;;;;;;;6.90;4.18;;;19.00;99.90;;;19.44;100.00;101349.03;5185135;28;20474;-66
2022/08/31 05:51:11;;;;;;;7.55;3.92;;;19.00;99.90;;;19.45;100.00;101349.91;5185511;28;20088;-67
2022/08/31 05:53:43;;;;;;;8.38;4.70;;;19.00;99.90;;;19.47;100.00;101358.72;5185422;28;20046;-68
2022/08/31 05:56:19;;;;;;;5.47;3.63;;;19.00;99.90;;;19.49;100.00;101359.59;5185207;28;20041;-68
2022/08/31 05:58:54;;;;;;;7.00;3.70;;;19.10;99.90;;;19.51;100.00;101360.53;5185264;28;20518;-67
2022/08/31 06:01:30;;;;;;;6.38;3.92;;;19.10;99.90;;;19.52;100.00;101363.16;5184989;28;20498;-66
2022/08/31 06:04:19;;;;;;;7.10;4.20;;;19.10;99.90;;;19.55;100.00;101357.00;5186008;28;20519;-55
2022/08/31 06:06:52;;;;;;;5.72;3.88;;;19.10;99.90;;;19.58;100.00;101367.66;5184641;28;20054;-54
2022/08/31 06:09:27;;;;;;;5.93;3.45;;;19.20;99.90;;;19.60;100.00;101354.44;5184417;28;20525;-54
2022/08/31 06:11:59;;;;;;;7.72;4.20;;;19.20;99.90;;;19.66;100.00;101368.59;5184312;28;20046;-55
2022/08/31 06:14:32;;;;;;;5.72;3.65;;;19.20;99.90;;;19.71;100.00;101369.50;5184278;28;20546;-54
2022/08/31 06:17:05;;;;;;;4.97;3.60;;;19.20;99.90;;;19.76;100.00;101361.63;5183886;28;20081;-54
2022/08/31 06:19:39;;;;;;;6.30;3.88;;;19.30;99.90;;;19.79;100.00;101375.72;5183930;28;20042;-54
2022/08/31 06:22:13;;;;;;;6.13;3.45;;;19.40;99.90;;;19.82;100.00;101368.66;5183992;28;20499;-54
2022/08/31 06:24:45;;;;;;;5.53;3.47;;;19.40;99.90;;;19.86;100.00;101374.00;5184087;28;20120;-54
2022/08/31 06:27:18;;;;;;;6.28;3.45;;;19.40;99.90;;;19.92;100.00;101375.81;5185550;28;20046;-52
2022/08/31 06:29:51;;;;;;;5.72;3.42;;;19.40;99.90;;;19.96;100.00;101374.97;5184418;28;20136;-52
2022/08/31 06:32:25;;;;;;;5.45;3.50;;;19.50;99.90;;;20.02;100.00;101372.34;5186391;28;20046;-53
2022/08/31 06:35:08;;;;;;;5.38;3.28;;;19.50;99.90;;;20.11;100.00;101375.03;5185587;28;20134;-53
2022/08/31 06:38:07;;;;;;;6.07;3.88;;;19.70;99.90;;;20.18;100.00;101379.47;5185154;28;20135;-52
2022/08/31 06:41:14;;;;;;;9.27;4.22;;;19.70;99.90;;;20.25;100.00;101373.31;5180767;28;20127;-54
2022/08/31 06:44:09;;;;;;;5.47;3.85;;;19.80;99.90;;;20.28;100.00;101378.63;5186253;28;20054;-53
2022/08/31 06:47:05;;;;;;;6.85;4.20;;;19.80;99.90;;;20.30;100.00;101371.59;5180775;28;20061;-53
2022/08/31 06:49:40;;;;;;;7.03;4.22;;;19.90;99.90;;;20.38;100.00;101374.25;5185171;28;20441;-55
2022/08/31 06:52:14;;;;;;;6.68;3.60;;;20.00;99.90;;;20.55;100.00;101377.88;5184968;28;20034;-54
2022/08/31 06:54:50;;;;;;;7.15;3.72;;;20.10;99.90;;;20.81;100.00;101375.31;5183729;28;20050;-52
2022/08/31 06:57:45;;;;;;;4.72;3.20;;;20.30;99.90;;;21.14;100.00;101376.22;5156864;28;20055;-52
2022/08/31 07:00:37;;;;;;;6.80;4.07;;;20.50;99.90;;;21.41;100.00;101372.72;5184824;28;20050;-53
2022/08/31 07:03:31;;;;;;;5.75;3.70;;;20.70;99.90;;;21.66;100.00;101381.53;5184895;28;20438;-52
2022/08/31 07:06:08;;;;;;;5.70;3.55;;;21.00;99.90;;;21.85;100.00;101383.28;5199944;28;20049;-53
2022/08/31 07:08:44;;;;;;;8.20;4.18;;;21.20;99.90;;;21.99;100.00;101392.97;5183367;28;20045;-54
2022/08/31 07:11:19;;;;;;;5.75;3.58;;;21.30;99.90;;;22.04;100.00;101393.81;5183341;28;20046;-53
2022/08/31 07:13:53;;;;;;;6.18;3.50;;;21.40;99.90;;;22.09;100.00;101392.06;5199936;28;20132;-53
2022/08/31 07:16:28;;;;;;;5.90;3.58;;;21.50;99.90;;;22.20;100.00;101395.59;5246761;22;20054;-53
2022/08/31 07:19:05;;;;;;;4.43;3.17;;;21.50;99.90;;;22.35;100.00;101392.84;5176785;28;20065;-54
2022/08/31 07:21:43;;;;;;;6.00;3.38;;;21.70;99.90;;;22.43;100.00;101392.81;5185461;28;20077;-53
2022/08/31 07:24:22;;;;;;;6.25;3.22;;;21.70;99.90;;;22.43;100.00;101399.03;5185361;28;20138;-52
2022/08/31 07:26:58;;;;;;;5.38;3.08;;;21.80;99.90;;;22.39;100.00;101394.63;5182290;28;20514;-55
2022/08/31 07:29:40;;;;;;;4.63;3.03;;;21.70;99.90;;;22.21;100.00;101395.56;5182630;28;20056;-53
2022/08/31 07:32:16;;;;;;;6.68;3.55;;;21.70;99.90;;;22.16;100.00;101393.81;5182725;28;20038;-53
2022/08/31 07:34:49;;;;;;;5.20;3.33;;;21.60;99.90;;;22.13;100.00;101396.50;5182598;28;20418;-54
2022/08/31 07:43:22;;;;;;;4.35;3.03;;;21.60;99.90;;;22.13;100.00;101399.16;5182323;28;20049;-52
2022/08/31 07:45:55;;;;;;;6.45;3.47;;;21.60;99.90;;;22.10;100.00;101396.50;5183346;28;20042;-53
2022/08/31 07:48:30;;;;;;;5.05;3.10;;;21.60;99.90;;;22.09;100.00;101400.91;5182366;28;20050;-53
2022/08/31 07:51:28;;;;;;;5.20;3.30;;;21.60;99.90;;;22.13;100.00;101407.13;5188373;28;20074;-53
2022/08/31 07:54:24;;;;;;;5.13;3.10;;;21.60;99.90;;;22.31;100.00;101416.81;5185999;28;20046;-53
2022/08/31 07:57:42;;;;;;;5.30;3.28;;;21.70;99.90;;;22.56;100.00;101420.22;5182270;28;20138;-54
2022/08/31 08:00:19;;;;;;;5.13;3.00;;;21.90;99.90;;;22.74;100.00;101417.47;5186401;28;20182;-52
2022/08/31 08:02:52;;;;;;;5.95;3.60;;;22.00;99.90;;;23.02;100.00;101418.25;5186327;28;20140;-52
2022/08/31 08:05:30;;;;;;;6.00;3.38;;;22.20;99.90;;;23.06;100.00;101424.41;5186200;28;20129;-52
2022/08/31 08:08:23;;;;;;;7.78;3.40;;;22.30;99.90;;;22.93;100.00;101419.16;5187955;28;20566;-53
2022/08/31 08:11:17;;;;;;;5.57;2.97;;;22.30;99.90;;;22.80;100.00;101420.09;5186200;28;20076;-53
2022/08/31 08:14:07;;;;;;;4.97;3.13;;;22.20;99.90;;;22.65;100.00;101422.84;5187392;28;20124;-53
2022/08/31 08:16:54;;;;;;;4.43;3.17;;;22.10;99.90;;;22.55;100.00;101415.78;5185550;28;20450;-52
2022/08/31 08:19:46;;;;;;;6.75;3.13;;;22.00;99.90;;;22.44;100.00;101422.06;5187094;28;20407;-53
2022/08/31 08:22:18;;;;;;;4.70;3.10;;;22.00;99.90;;;22.34;100.00;101433.59;5185796;28;20522;-53
2022/08/31 08:25:14;;;;;;;7.82;3.20;;;21.90;99.90;;;22.29;100.00;101424.75;5185839;28;20057;-53
2022/08/31 08:27:58;;;;;;;4.43;2.70;;;21.80;99.90;;;22.28;100.00;101432.72;5185635;28;20050;-53
2022/08/31 08:30:39;;;;;;;5.63;3.15;;;21.80;99.90;;;22.27;100.00;101433.63;5186869;28;20069;-52
2022/08/31 08:33:12;;;;;;;3.90;2.85;;;21.70;99.90;;;22.26;100.00;101432.75;5185696;28;20037;-53
2022/08/31 08:35:44;;;;;;;3.83;2.83;;;21.70;99.90;;;22.30;100.00;101436.25;5185357;28;20072;-53
2022/08/31 08:38:18;;;;;;;4.82;3.03;;;21.70;99.90;;;22.33;100.00;101437.16;5186723;28;20042;-53
2022/08/31 08:40:51;;;;;;;4.10;2.95;;;21.80;99.90;;;22.38;100.00;101446.00;5186939;28;20580;-52
2022/08/31 08:43:31;;;;;;;5.07;3.30;;;21.80;99.90;;;22.45;100.00;101436.22;5185311;28;20042;-52
2022/08/31 08:46:07;;;;;;;3.95;2.95;;;21.80;99.90;;;22.51;100.00;101445.94;5184802;28;20050;-53
2022/08/31 08:48:44;;;;;;;5.32;3.15;;;21.80;99.90;;;22.56;100.00;101447.69;5185520;28;20052;-55
2022/08/31 08:51:19;;;;;;;3.83;2.90;;;21.90;99.90;;;22.60;100.00;101443.22;5185493;28;20455;-53
2022/08/31 08:54:08;;;;;;;5.80;3.20;;;21.90;99.90;;;22.68;100.00;101450.28;5185217;28;20049;-53
2022/08/31 08:56:47;;;;;;;4.53;3.10;;;22.00;99.90;;;22.74;100.00;101442.28;5186291;28;20050;-55
2022/08/31 08:59:23;;;;;;;4.47;2.90;;;22.00;99.90;;;22.82;100.00;101447.56;5186700;28;20073;-53
2022/08/31 09:02:05;;;;;;;4.82;3.30;;;22.10;99.90;;;22.87;100.00;101445.78;5187714;28;20120;-53
2022/08/31 09:05:09;;;;;;;5.53;2.70;;;22.20;99.90;;;23.02;100.00;101445.72;5185600;28;20052;-53
2022/08/31 09:08:22;;;;;;;4.53;3.03;;;22.30;99.90;;;23.18;100.00;101441.16;5186301;28;20533;-53
2022/08/31 09:11:08;;;;;;;4.82;2.83;;;22.40;99.90;;;23.37;100.00;101449.00;5186729;28;20054;-53
2022/08/31 09:13:54;;;;;;;4.70;3.50;;;22.60;99.90;;;23.54;100.00;101449.78;5185854;28;20528;-51
2022/08/31 09:16:38;;;;;;;3.83;2.80;;;22.70;99.90;;;23.97;100.00;101455.59;5185768;28;20060;-52
2022/08/31 09:19:19;;;;;;;4.97;3.45;;;23.00;99.90;;;24.26;100.00;101457.97;5185209;28;20533;-54
2022/08/31 09:21:55;;;;;;;4.90;2.97;;;23.30;99.90;;;24.30;98.41;101458.81;5184957;28;20108;-53
2022/08/31 09:24:29;;;;;;;6.63;3.25;;;23.40;99.90;;;24.21;97.51;101456.25;5184641;28;20576;-52
2022/08/31 09:27:20;;;;;;;5.40;3.05;;;23.40;99.50;;;24.27;98.37;101451.75;5184632;28;20053;-52
2022/08/31 09:29:54;;;;;;;;;;;23.50;99.80;;;24.26;97.47;101444.66;5186293;28;20046;-55
2022/08/31 09:32:30;;;;;;;4.13;2.83;;;23.50;99.30;;;24.34;97.43;101450.81;5185855;28;20309;-52
2022/08/31 09:35:08;;;;;;;4.30;2.90;;;23.50;99.20;;;24.45;97.95;101456.00;5184631;28;20518;-55
2022/08/31 09:37:45;;;;;;;5.68;2.92;;;23.60;99.30;;;24.66;97.11;101451.31;5185549;28;20084;-52
2022/08/31 09:40:21;;;;;;;5.68;3.25;;;23.80;99.10;;;25.05;96.48;101461.47;5185888;28;20046;-52
2022/08/31 09:43:05;;;;;;;4.97;3.03;;;24.10;99.20;;;25.42;93.44;101458.22;5185680;28;20096;-52
2022/08/31 09:45:50;;;;;;;4.32;3.13;;;24.40;98.20;;;25.88;92.71;101454.78;5186111;28;20038;-52
2022/08/31 09:48:43;;;;;;;4.15;2.97;;;24.70;97.90;;;26.39;90.25;101455.59;5185971;28;20053;-52
2022/08/31 09:51:26;;;;;;;5.35;3.40;;;25.20;97.10;;;26.72;86.32;101456.69;5185559;28;20123;-53
2022/08/31 09:56:57;;;;;;;3.78;2.83;;;25.80;94.80;;;26.98;82.49;101463.28;5185131;28;20050;-52
2022/08/31 09:59:38;;;;;;;4.72;2.90;;;26.00;93.50;;;26.82;81.33;101470.78;5185290;28;20050;-53
2022/08/31 10:02:29;;;;;;;5.40;2.95;;;25.90;92.60;;;26.62;82.96;101462.31;5185456;28;20438;-53
2022/08/31 10:05:06;;;;;;;4.35;2.83;;;25.80;92.80;;;26.44;82.48;101461.75;5185489;28;20053;-54
2022/08/31 10:07:49;;;;;;;3.92;2.70;;;25.70;92.60;;;26.43;82.73;101464.47;5184969;28;20129;-54
2022/08/31 10:10:26;;;;;;;5.60;2.97;;;25.60;92.60;;;26.30;81.10;101460.25;5185410;28;20120;-52
2022/08/31 10:13:04;;;;;;;5.75;2.90;;;25.50;91.80;;;26.17;80.70;101457.81;5185571;28;20046;-53
2022/08/31 10:15:43;;;;;;;5.53;3.25;;;25.40;91.80;;;26.03;81.83;101454.53;5184611;28;20120;-54
2022/08/31 10:18:22;;;;;;;3.72;2.60;;;25.30;91.80;;;26.15;82.91;101451.63;5184624;28;20042;-52
2022/08/31 10:21:06;;;;;;;3.78;2.67;;;25.30;92.30;;;26.35;83.49;101445.00;5185315;28;20462;-53
2022/08/31 10:23:53;;;;;;;4.45;2.90;;;25.40;92.50;;;26.65;82.89;101455.06;5184931;28;20038;-53
2022/08/31 10:26:35;;;;;;;5.18;2.92;;;25.70;92.50;;;26.91;82.30;101448.28;5184569;28;20388;-53
2022/08/31 10:29:16;;;;;;;4.38;2.85;;;25.90;92.20;;;27.09;82.65;101434.50;5184701;28;20128;-55
2022/08/31 10:31:52;;;;;;;5.07;2.85;;;26.10;92.30;;;27.00;80.06;101453.44;5184441;28;20072;-54
2022/08/31 10:37:30;;;;;;;5.45;2.72;;;26.10;91.20;;;26.84;79.92;101450.22;5184390;28;20084;-53
2022/08/31 10:40:10;;;;;;;4.25;2.90;;;26.10;90.70;;;26.49;78.61;101445.63;5184543;28;20066;-54
2022/08/31 10:42:49;;;;;;;4.22;2.55;;;25.80;89.40;;;26.34;79.57;101448.56;5184490;28;20038;-53
2022/08/31 10:45:24;;;;;;;5.97;2.80;;;25.70;90.10;;;26.48;79.93;101443.88;5184556;28;20081;-53
2022/08/31 10:47:57;;;;;;;3.80;2.88;;;25.70;90.30;;;26.54;79.21;101442.84;5183986;28;20104;-52
2022/08/31 10:50:43;;;;;;;4.28;2.72;;;25.70;89.90;;;26.51;79.38;101443.78;5184352;28;20100;-52
2022/08/31 10:53:42;;;;;;;4.00;2.90;;;25.70;89.80;;;26.37;80.21;101438.69;5184630;28;20408;-53
2022/08/31 10:56:23;;;;;;;3.88;2.72;;;25.70;90.10;;;26.35;81.40;101432.53;5183906;28;20038;-53
2022/08/31 10:59:12;;;;;;;3.90;2.92;;;25.60;90.50;;;26.33;80.99;101431.66;5184303;28;20126;-54
2022/08/31 11:01:55;;;;;;;4.22;2.83;;;25.60;90.40;;;26.40;80.25;101437.78;5184371;28;20129;-54
2022/08/31 11:04:54;;;;;;;3.63;2.53;;;25.60;90.10;;;26.52;80.35;101430.38;5184342;28;20113;-53
2022/08/31 11:07:37;;;;;;;3.22;2.55;;;25.70;90.20;;;26.83;81.72;101443.09;5183906;28;20050;-53
2022/08/31 11:10:21;;;;;;;4.05;3.05;;;25.80;90.80;;;26.98;79.74;101432.03;5184346;28;20048;-56